createdAt,value
2023-05-09T00:00:16.153Z,97
2023-05-09T00:00:46.184Z,97
2023-05-09T00:01:17.994Z,97
2023-05-09T00:01:50.546Z,97
2023-05-09T00:02:22.326Z,97
2023-05-09T00:02:54.507Z,97
2023-05-09T00:03:11.332Z,97
2023-05-09T00:03:53.947Z,97
2023-05-09T00:04:26.005Z,97
2023-05-09T00:04:57.981Z,97
2023-05-09T00:05:30.037Z,97
2023-05-09T00:06:02.119Z,97
2023-05-09T00:06:33.758Z,97
2023-05-09T00:07:05.877Z,97
2023-05-09T00:07:37.856Z,97
2023-05-09T00:08:09.891Z,97
2023-05-09T00:08:41.737Z,97
2023-05-09T00:09:13.788Z,97
2023-05-09T00:09:45.571Z,97
2023-05-09T00:10:17.969Z,97
2023-05-09T00:10:49.805Z,97
2023-05-09T00:11:21.629Z,97
2023-05-09T00:11:53.618Z,97
2023-05-09T00:12:25.608Z,97
2023-05-09T00:12:57.620Z,97
2023-05-09T00:13:29.775Z,97
2023-05-09T00:14:01.604Z,97
2023-05-09T00:14:33.478Z,97
2023-05-09T00:15:06.852Z,97
2023-05-09T00:15:37.640Z,97
2023-05-09T00:16:09.426Z,97
2023-05-09T00:16:41.470Z,97
2023-05-09T00:17:13.549Z,97
2023-05-09T00:17:45.485Z,97
2023-05-09T00:18:17.448Z,97
2023-05-09T00:18:49.506Z,97
2023-05-09T00:19:21.299Z,97
2023-05-09T00:19:53.314Z,97
2023-05-09T00:20:25.415Z,97
2023-05-09T00:20:41.597Z,97
2023-05-09T00:21:13.172Z,97
2023-05-09T00:21:57.353Z,97
2023-05-09T00:22:29.270Z,97
2023-05-09T00:23:01.492Z,97
2023-05-09T00:23:33.079Z,97
2023-05-09T00:24:05.351Z,97
2023-05-09T00:24:37.390Z,97
2023-05-09T00:25:09.351Z,97
2023-05-09T00:25:25.053Z,97
2023-05-09T00:26:09.067Z,97
2023-05-09T00:26:41.077Z,97
2023-05-09T00:27:13.112Z,97
2023-05-09T00:27:44.814Z,97
2023-05-09T00:28:17.052Z,97
2023-05-09T00:28:48.980Z,97
2023-05-09T00:29:21.004Z,97
2023-05-09T00:29:52.837Z,97
2023-05-09T00:30:25.108Z,97
2023-05-09T00:30:56.942Z,97
2023-05-09T00:31:28.995Z,97
2023-05-09T00:32:00.834Z,97
2023-05-09T00:32:32.739Z,97
2023-05-09T00:33:05.224Z,97
2023-05-09T00:33:36.934Z,97
2023-05-09T00:34:08.833Z,97
2023-05-09T00:34:24.656Z,97
2023-05-09T00:34:56.669Z,97
2023-05-09T00:35:41.219Z,97
2023-05-09T00:36:12.366Z,97
2023-05-09T00:36:44.594Z,97
2023-05-09T00:37:16.655Z,97
2023-05-09T00:37:48.629Z,97
2023-05-09T00:38:20.589Z,97
2023-05-09T00:38:52.441Z,97
2023-05-09T00:39:24.467Z,97
2023-05-09T00:39:56.559Z,97
2023-05-09T00:40:28.617Z,97
2023-05-09T00:41:00.310Z,97
2023-05-09T00:41:32.353Z,97
2023-05-09T00:42:04.543Z,97
2023-05-09T00:42:36.332Z,97
2023-05-09T00:43:08.436Z,97
2023-05-09T00:43:40.430Z,97
2023-05-09T00:44:12.246Z,97
2023-05-09T00:44:44.203Z,97
2023-05-09T00:45:17.404Z,97
2023-05-09T00:45:48.243Z,97
2023-05-09T00:46:20.525Z,97
2023-05-09T00:46:52.069Z,97
2023-05-09T00:47:24.194Z,97
2023-05-09T00:47:40.387Z,97
2023-05-09T00:48:24.188Z,97
2023-05-09T00:48:56.369Z,97
2023-05-09T00:49:28.137Z,97
2023-05-09T00:50:00.177Z,97
2023-05-09T00:50:32.299Z,97
2023-05-09T00:51:04.646Z,97
2023-05-09T00:51:36.094Z,97
2023-05-09T00:52:08.304Z,97
2023-05-09T00:52:39.986Z,97
2023-05-09T00:53:11.853Z,97
2023-05-09T00:53:43.842Z,97
2023-05-09T00:54:15.776Z,97
2023-05-09T00:54:48.234Z,97
2023-05-09T00:55:20.067Z,97
2023-05-09T00:55:51.726Z,97
2023-05-09T00:56:08.116Z,97
2023-05-09T00:56:51.732Z,97
2023-05-09T00:57:23.762Z,97
2023-05-09T00:57:55.621Z,97
2023-05-09T00:58:27.673Z,97
2023-05-09T00:58:59.827Z,97
2023-05-09T00:59:31.731Z,97
2023-05-09T01:00:05.912Z,97
2023-05-09T01:00:35.588Z,97
2023-05-09T01:01:07.695Z,97
2023-05-09T01:01:39.561Z,98
2023-05-09T01:02:11.521Z,97
2023-05-09T01:02:43.744Z,97
2023-05-09T01:03:15.538Z,98
2023-05-09T01:03:47.663Z,97
2023-05-09T01:04:19.313Z,98
2023-05-09T01:04:51.376Z,97
2023-05-09T01:05:07.907Z,97
2023-05-09T01:05:39.346Z,97
2023-05-09T01:05:55.537Z,98
2023-05-09T01:06:27.526Z,98
2023-05-09T01:06:59.472Z,98
2023-05-09T01:07:31.211Z,97
2023-05-09T01:08:03.778Z,97
2023-05-09T01:08:35.126Z,97
2023-05-09T01:09:07.277Z,97
2023-05-09T01:09:23.351Z,97
2023-05-09T01:09:55.010Z,97
2023-05-09T01:10:39.741Z,98
2023-05-09T01:11:11.184Z,98
2023-05-09T01:11:43.085Z,97
2023-05-09T01:12:15.111Z,98
2023-05-09T01:12:47.234Z,98
2023-05-09T01:13:18.973Z,98
2023-05-09T01:13:51.075Z,98
2023-05-09T01:14:07.390Z,98
2023-05-09T01:14:51.274Z,97
2023-05-09T01:15:23.457Z,97
2023-05-09T01:15:54.810Z,98
2023-05-09T01:16:27.133Z,97
2023-05-09T01:16:58.863Z,97
2023-05-09T01:17:30.871Z,97
2023-05-09T01:18:03.359Z,98
2023-05-09T01:18:34.772Z,98
2023-05-09T01:19:06.874Z,98
2023-05-09T01:19:38.857Z,98
2023-05-09T01:20:10.882Z,98
2023-05-09T01:20:42.718Z,97
2023-05-09T01:21:14.892Z,97
2023-05-09T01:21:46.797Z,98
2023-05-09T01:22:18.598Z,98
2023-05-09T01:22:50.600Z,98
2023-05-09T01:23:22.586Z,98
2023-05-09T01:23:54.702Z,97
2023-05-09T01:24:26.605Z,98
2023-05-09T01:24:58.742Z,98
2023-05-09T01:25:30.917Z,98
2023-05-09T01:26:03.038Z,98
2023-05-09T01:26:34.221Z,98
2023-05-09T01:27:06.540Z,98
2023-05-09T01:27:22.541Z,98
2023-05-09T01:27:54.332Z,98
2023-05-09T01:28:38.618Z,98
2023-05-09T01:29:10.400Z,98
2023-05-09T01:29:42.389Z,98
2023-05-09T01:30:15.605Z,98
2023-05-09T01:30:46.438Z,98
2023-05-09T01:31:18.326Z,98
2023-05-09T01:31:50.387Z,98
2023-05-09T01:32:06.746Z,98
2023-05-09T01:32:50.331Z,98
2023-05-09T01:33:22.176Z,98
2023-05-09T01:33:54.083Z,98
2023-05-09T01:34:26.293Z,98
2023-05-09T01:34:58.108Z,98
2023-05-09T01:35:30.501Z,98
2023-05-09T01:36:02.548Z,98
2023-05-09T01:36:33.997Z,98
2023-05-09T01:37:06.120Z,98
2023-05-09T01:37:38.125Z,98
2023-05-09T01:38:09.825Z,98
2023-05-09T01:38:41.899Z,98
2023-05-09T01:39:13.918Z,98
2023-05-09T01:39:45.991Z,98
2023-05-09T01:40:18.162Z,98
2023-05-09T01:40:49.990Z,98
2023-05-09T01:41:06.167Z,98
2023-05-09T01:41:37.789Z,98
2023-05-09T01:41:53.965Z,98
2023-05-09T01:42:26.158Z,98
2023-05-09T01:42:57.955Z,98
2023-05-09T01:43:13.840Z,98
2023-05-09T01:43:45.785Z,98
2023-05-09T01:44:30.066Z,98
2023-05-09T01:45:04.185Z,98
2023-05-09T01:45:33.611Z,98
2023-05-09T01:46:06.079Z,98
2023-05-09T01:46:37.874Z,98
2023-05-09T01:47:09.699Z,98
2023-05-09T01:47:41.660Z,98
2023-05-09T01:48:13.616Z,98
2023-05-09T01:48:45.723Z,98
2023-05-09T01:49:17.511Z,98
2023-05-09T01:49:49.497Z,98
2023-05-09T01:50:06.042Z,98
2023-05-09T01:50:49.509Z,98
2023-05-09T01:51:21.614Z,98
2023-05-09T01:51:53.363Z,98
2023-05-09T01:52:25.261Z,98
2023-05-09T01:52:57.487Z,98
2023-05-09T01:53:29.471Z,98
2023-05-09T01:54:01.221Z,98
2023-05-09T01:54:33.385Z,98
2023-05-09T01:55:05.777Z,98
2023-05-09T01:55:37.466Z,98
2023-05-09T01:56:09.175Z,98
2023-05-09T01:56:41.178Z,98
2023-05-09T01:57:13.138Z,98
2023-05-09T01:57:45.264Z,98
2023-05-09T01:58:17.112Z,98
2023-05-09T01:58:49.087Z,98
2023-05-09T01:59:21.194Z,98
2023-05-09T01:59:53.258Z,98
2023-05-09T02:00:25.332Z,98
2023-05-09T02:00:57.256Z,98
2023-05-09T02:01:29.270Z,98
2023-05-09T02:02:01.080Z,98
2023-05-09T02:02:33.216Z,98
2023-05-09T02:03:05.217Z,98
2023-05-09T02:03:21.108Z,98
2023-05-09T02:03:52.953Z,98
2023-05-09T02:04:37.146Z,98
2023-05-09T02:05:09.103Z,98
2023-05-09T02:05:40.777Z,98
2023-05-09T02:06:12.933Z,98
2023-05-09T02:06:44.883Z,98
2023-05-09T02:07:16.762Z,98
2023-05-09T02:07:49.018Z,98
2023-05-09T02:08:05.077Z,98
2023-05-09T02:08:49.086Z,98
2023-05-09T02:09:20.821Z,98
2023-05-09T02:09:52.632Z,98
2023-05-09T02:10:25.038Z,98
2023-05-09T02:10:56.943Z,98
2023-05-09T02:11:28.996Z,98
2023-05-09T02:12:00.700Z,98
2023-05-09T02:12:32.509Z,98
2023-05-09T02:13:05.189Z,98
2023-05-09T02:13:36.923Z,98
2023-05-09T02:14:08.891Z,98
2023-05-09T02:14:40.494Z,98
2023-05-09T02:15:13.774Z,98
2023-05-09T02:15:44.607Z,98
2023-05-09T02:16:16.345Z,98
2023-05-09T02:16:48.880Z,98
2023-05-09T02:17:05.004Z,98
2023-05-09T02:17:36.649Z,98
2023-05-09T02:17:52.454Z,98
2023-05-09T02:18:24.327Z,98
2023-05-09T02:18:56.307Z,98
2023-05-09T02:19:28.476Z,98
2023-05-09T02:20:00.956Z,98
2023-05-09T02:20:32.115Z,98
2023-05-09T02:21:05.024Z,98
2023-05-09T02:21:36.398Z,98
2023-05-09T02:22:08.576Z,98
2023-05-09T02:22:40.222Z,98
2023-05-09T02:23:12.310Z,98
2023-05-09T02:23:44.206Z,97
2023-05-09T02:24:16.343Z,98
2023-05-09T02:24:48.392Z,98
2023-05-09T02:25:20.391Z,98
2023-05-09T02:25:52.161Z,98
2023-05-09T02:26:24.108Z,98
2023-05-09T02:26:55.912Z,98
2023-05-09T02:27:28.186Z,98
2023-05-09T02:28:00.222Z,98
2023-05-09T02:28:31.696Z,98
2023-05-09T02:29:04.716Z,98
2023-05-09T02:29:20.155Z,98
2023-05-09T02:30:06.005Z,98
2023-05-09T02:30:36.015Z,98
2023-05-09T02:31:07.736Z,98
2023-05-09T02:31:39.916Z,98
2023-05-09T02:32:11.811Z,98
2023-05-09T02:32:43.764Z,98
2023-05-09T02:33:15.611Z,98
2023-05-09T02:33:47.794Z,98
2023-05-09T02:34:04.446Z,98
2023-05-09T02:34:35.709Z,98
2023-05-09T02:34:51.773Z,98
2023-05-09T02:35:23.758Z,98
2023-05-09T02:35:55.457Z,98
2023-05-09T02:36:27.921Z,98
2023-05-09T02:36:59.829Z,98
2023-05-09T02:37:31.478Z,98
2023-05-09T02:38:03.954Z,98
2023-05-09T02:38:35.660Z,98
2023-05-09T02:39:07.653Z,98
2023-05-09T02:39:39.552Z,98
2023-05-09T02:40:11.545Z,98
2023-05-09T02:40:43.312Z,98
2023-05-09T02:41:15.404Z,98
2023-05-09T02:41:47.686Z,98
2023-05-09T02:42:19.412Z,98
2023-05-09T02:42:51.341Z,98
2023-05-09T02:43:23.317Z,98
2023-05-09T02:43:55.245Z,98
2023-05-09T02:44:27.421Z,98
2023-05-09T02:44:59.251Z,98
2023-05-09T02:45:31.525Z,98
2023-05-09T02:46:03.859Z,98
2023-05-09T02:46:35.093Z,98
2023-05-09T02:46:51.381Z,98
2023-05-09T02:47:23.024Z,98
2023-05-09T02:48:08.905Z,98
2023-05-09T02:48:39.378Z,98
2023-05-09T02:49:19.592Z,98
2023-05-09T02:49:43.038Z,98
2023-05-09T02:50:15.295Z,98
2023-05-09T02:50:47.045Z,98
2023-05-09T02:51:19.003Z,98
2023-05-09T02:51:34.983Z,98
2023-05-09T02:52:18.978Z,98
2023-05-09T02:52:50.964Z,98
2023-05-09T02:53:22.787Z,98
2023-05-09T02:53:54.903Z,98
2023-05-09T02:54:26.904Z,98
2023-05-09T02:54:59.104Z,98
2023-05-09T02:55:31.224Z,98
2023-05-09T02:56:03.310Z,98
2023-05-09T02:56:18.928Z,98
2023-05-09T02:56:50.784Z,98
2023-05-09T02:57:34.790Z,98
2023-05-09T02:58:14.292Z,98
2023-05-09T02:58:39.012Z,98
2023-05-09T02:59:10.733Z,98
2023-05-09T02:59:42.765Z,98
2023-05-09T03:00:15.899Z,98
2023-05-09T03:00:46.514Z,98
2023-05-09T03:01:03.245Z,98
2023-05-09T03:01:46.535Z,98
2023-05-09T03:02:18.807Z,98
2023-05-09T03:02:50.462Z,98
2023-05-09T03:03:22.742Z,98
2023-05-09T03:03:54.493Z,98
2023-05-09T03:04:26.498Z,98
2023-05-09T03:04:58.329Z,98
2023-05-09T03:05:30.664Z,98
2023-05-09T03:06:02.543Z,98
2023-05-09T03:06:34.379Z,98
2023-05-09T03:07:06.534Z,98
2023-05-09T03:07:38.122Z,98
2023-05-09T03:08:10.348Z,98
2023-05-09T03:08:42.350Z,98
2023-05-09T03:09:14.260Z,98
2023-05-09T03:09:46.122Z,98
2023-05-09T03:10:18.635Z,98
2023-05-09T03:10:50.137Z,98
2023-05-09T03:11:22.247Z,98
2023-05-09T03:11:54.101Z,98
2023-05-09T03:12:25.944Z,98
2023-05-09T03:12:58.172Z,98
2023-05-09T03:13:30.172Z,98
2023-05-09T03:14:01.914Z,98
2023-05-09T03:14:18.122Z,98
2023-05-09T03:14:50.122Z,98
2023-05-09T03:15:34.507Z,98
2023-05-09T03:16:06.121Z,98
2023-05-09T03:16:37.888Z,98
2023-05-09T03:17:10.063Z,98
2023-05-09T03:17:41.967Z,98
2023-05-09T03:18:13.820Z,98
2023-05-09T03:18:45.687Z,98
2023-05-09T03:19:02.017Z,98
2023-05-09T03:19:45.786Z,98
2023-05-09T03:20:18.248Z,98
2023-05-09T03:20:50.199Z,98
2023-05-09T03:21:21.787Z,98
2023-05-09T03:21:53.738Z,98
2023-05-09T03:22:25.758Z,98
2023-05-09T03:22:57.865Z,98
2023-05-09T03:23:29.776Z,98
2023-05-09T03:24:01.831Z,98
2023-05-09T03:24:33.559Z,98
2023-05-09T03:25:06.035Z,98
2023-05-09T03:25:37.717Z,98
2023-05-09T03:26:09.665Z,98
2023-05-09T03:26:41.470Z,98
2023-05-09T03:27:13.645Z,98
2023-05-09T03:27:45.413Z,98
2023-05-09T03:28:01.992Z,98
2023-05-09T03:28:33.346Z,98
2023-05-09T03:28:49.925Z,98
2023-05-09T03:29:21.694Z,98
2023-05-09T03:29:53.307Z,98
2023-05-09T03:30:25.814Z,98
2023-05-09T03:30:57.359Z,98
2023-05-09T03:31:29.512Z,98
2023-05-09T03:32:01.436Z,98
2023-05-09T03:32:17.401Z,98
2023-05-09T03:32:49.738Z,98
2023-05-09T03:33:33.401Z,98
2023-05-09T03:34:05.245Z,98
2023-05-09T03:34:38.293Z,98
2023-05-09T03:35:09.582Z,98
2023-05-09T03:35:41.062Z,98
2023-05-09T03:36:13.170Z,98
2023-05-09T03:36:44.962Z,98
2023-05-09T03:37:01.296Z,98
2023-05-09T03:37:45.001Z,98
2023-05-09T03:38:16.975Z,98
2023-05-09T03:38:49.473Z,98
2023-05-09T03:39:20.866Z,98
2023-05-09T03:39:53.014Z,98
2023-05-09T03:40:25.307Z,98
2023-05-09T03:40:56.956Z,98
2023-05-09T03:41:29.213Z,98
2023-05-09T03:42:00.967Z,98
2023-05-09T03:42:32.933Z,98
2023-05-09T03:43:05.333Z,98
2023-05-09T03:43:36.916Z,98
2023-05-09T03:44:09.174Z,98
2023-05-09T03:44:40.937Z,98
2023-05-09T03:45:14.513Z,98
2023-05-09T03:45:44.557Z,98
2023-05-09T03:46:00.945Z,98
2023-05-09T03:46:32.751Z,98
2023-05-09T03:47:16.708Z,98
2023-05-09T03:47:49.112Z,98
2023-05-09T03:48:20.580Z,98
2023-05-09T03:48:52.677Z,98
2023-05-09T03:49:24.580Z,98
2023-05-09T03:49:56.492Z,98
2023-05-09T03:50:29.057Z,98
2023-05-09T03:51:00.712Z,98
2023-05-09T03:51:32.576Z,98
2023-05-09T03:52:05.219Z,98
2023-05-09T03:52:36.665Z,98
2023-05-09T03:53:08.518Z,98
2023-05-09T03:53:40.698Z,98
2023-05-09T03:54:12.623Z,98
2023-05-09T03:54:44.413Z,98
2023-05-09T03:55:16.839Z,98
2023-05-09T03:55:48.737Z,98
2023-05-09T03:56:20.554Z,98
2023-05-09T03:56:52.452Z,98
2023-05-09T03:57:24.448Z,97
2023-05-09T03:57:56.255Z,97
2023-05-09T03:58:28.671Z,98
2023-05-09T03:59:00.500Z,98
2023-05-09T03:59:16.447Z,98
2023-05-09T04:00:01.784Z,98
2023-05-09T04:00:32.215Z,98
2023-05-09T04:01:04.987Z,98
2023-05-09T04:01:37.302Z,97
2023-05-09T04:02:08.542Z,97
2023-05-09T04:02:40.574Z,98
2023-05-09T04:03:12.059Z,98
2023-05-09T04:03:44.335Z,98
2023-05-09T04:04:00.543Z,98
2023-05-09T04:04:32.072Z,98
2023-05-09T04:04:48.308Z,98
2023-05-09T04:05:20.728Z,98
2023-05-09T04:05:52.123Z,98
2023-05-09T04:06:23.993Z,98
2023-05-09T04:06:56.086Z,98
2023-05-09T04:07:28.301Z,98
2023-05-09T04:07:59.931Z,98
2023-05-09T04:08:16.058Z,98
2023-05-09T04:08:47.759Z,98
2023-05-09T04:09:32.079Z,98
2023-05-09T04:10:04.707Z,98
2023-05-09T04:10:35.707Z,98
2023-05-09T04:11:07.921Z,98
2023-05-09T04:11:40.169Z,98
2023-05-09T04:12:11.810Z,98
2023-05-09T04:12:43.652Z,98
2023-05-09T04:12:59.980Z,98
2023-05-09T04:13:43.681Z,98
2023-05-09T04:14:15.707Z,98
2023-05-09T04:14:49.186Z,98
2023-05-09T04:15:21.408Z,98
2023-05-09T04:15:51.861Z,98
2023-05-09T04:16:23.716Z,98
2023-05-09T04:16:55.792Z,98
2023-05-09T04:17:27.565Z,98
2023-05-09T04:17:59.728Z,98
2023-05-09T04:18:31.601Z,98
2023-05-09T04:19:04.308Z,98
2023-05-09T04:19:35.578Z,98
2023-05-09T04:20:07.845Z,98
2023-05-09T04:20:39.844Z,98
2023-05-09T04:21:11.581Z,98
2023-05-09T04:21:43.329Z,98
2023-05-09T04:21:59.564Z,98
2023-05-09T04:22:31.356Z,98
2023-05-09T04:22:47.409Z,98
2023-05-09T04:23:19.620Z,98
2023-05-09T04:23:51.294Z,98
2023-05-09T04:24:23.301Z,98
2023-05-09T04:24:55.423Z,98
2023-05-09T04:25:28.857Z,98
2023-05-09T04:25:59.222Z,98
2023-05-09T04:26:15.137Z,98
2023-05-09T04:26:47.035Z,98
2023-05-09T04:27:31.228Z,98
2023-05-09T04:28:03.534Z,98
2023-05-09T04:28:35.045Z,98
2023-05-09T04:29:07.206Z,98
2023-05-09T04:29:39.233Z,98
2023-05-09T04:30:12.679Z,98
2023-05-09T04:30:42.955Z,98
2023-05-09T04:30:59.667Z,98
2023-05-09T04:31:43.187Z,98
2023-05-09T04:32:14.921Z,98
2023-05-09T04:32:46.873Z,98
2023-05-09T04:33:19.196Z,98
2023-05-09T04:33:50.844Z,98
2023-05-09T04:34:23.014Z,98
2023-05-09T04:34:54.804Z,98
2023-05-09T04:35:27.009Z,98
2023-05-09T04:35:59.056Z,98
2023-05-09T04:36:30.809Z,98
2023-05-09T04:37:02.899Z,98
2023-05-09T04:37:34.714Z,98
2023-05-09T04:38:06.809Z,98
2023-05-09T04:38:38.990Z,98
2023-05-09T04:39:10.890Z,98
2023-05-09T04:39:42.623Z,98
2023-05-09T04:40:14.879Z,98
2023-05-09T04:40:46.572Z,98
2023-05-09T04:41:18.978Z,98
2023-05-09T04:41:50.771Z,98
2023-05-09T04:42:22.512Z,98
2023-05-09T04:42:54.612Z,98
2023-05-09T04:43:26.537Z,98
2023-05-09T04:43:58.635Z,98
2023-05-09T04:44:14.478Z,98
2023-05-09T04:44:46.287Z,98
2023-05-09T04:45:31.791Z,98
2023-05-09T04:46:03.318Z,98
2023-05-09T04:46:34.362Z,98
2023-05-09T04:47:06.271Z,98
2023-05-09T04:47:38.675Z,98
2023-05-09T04:48:10.482Z,98
2023-05-09T04:48:42.140Z,98
2023-05-09T04:48:58.636Z,98
2023-05-09T04:49:42.135Z,98
2023-05-09T04:50:14.517Z,98
2023-05-09T04:50:46.346Z,98
2023-05-09T04:51:18.040Z,98
2023-05-09T04:51:50.481Z,98
2023-05-09T04:52:22.316Z,98
2023-05-09T04:52:53.988Z,98
2023-05-09T04:53:25.965Z,98
2023-05-09T04:53:58.296Z,98
2023-05-09T04:54:30.183Z,98
2023-05-09T04:55:02.943Z,98
2023-05-09T04:55:34.004Z,98
2023-05-09T04:56:06.055Z,98
2023-05-09T04:56:38.034Z,98
2023-05-09T04:57:17.245Z,98
2023-05-09T04:57:41.933Z,98
2023-05-09T04:58:13.926Z,98
2023-05-09T04:58:45.952Z,98
2023-05-09T04:59:17.713Z,98
2023-05-09T04:59:50.142Z,98
2023-05-09T05:00:24.953Z,98
2023-05-09T05:00:53.858Z,98
2023-05-09T05:01:25.751Z,98
2023-05-09T05:01:58.080Z,98
2023-05-09T05:02:13.767Z,98
2023-05-09T05:02:45.552Z,98
2023-05-09T05:03:29.881Z,98
2023-05-09T05:04:01.790Z,98
2023-05-09T05:04:33.651Z,98
2023-05-09T05:05:11.949Z,98
2023-05-09T05:05:40.231Z,98
2023-05-09T05:06:09.594Z,98
2023-05-09T05:06:41.432Z,98
2023-05-09T05:06:57.720Z,98
2023-05-09T05:07:41.392Z,98
2023-05-09T05:08:13.436Z,98
2023-05-09T05:08:45.267Z,98
2023-05-09T05:09:17.405Z,98
2023-05-09T05:09:49.599Z,98
2023-05-09T05:10:21.601Z,98
2023-05-09T05:10:53.288Z,98
2023-05-09T05:11:25.329Z,98
2023-05-09T05:12:01.090Z,98
2023-05-09T05:12:29.747Z,98
2023-05-09T05:13:01.454Z,98
2023-05-09T05:13:36.141Z,98
2023-05-09T05:14:05.463Z,98
2023-05-09T05:14:37.352Z,98
2023-05-09T05:15:11.268Z,98
2023-05-09T05:15:41.078Z,98
2023-05-09T05:15:57.790Z,98
2023-05-09T05:16:29.241Z,98
2023-05-09T05:16:45.137Z,98
2023-05-09T05:17:17.007Z,98
2023-05-09T05:17:49.378Z,98
2023-05-09T05:18:05.609Z,98
2023-05-09T05:18:38.712Z,98
2023-05-09T05:19:21.083Z,97
2023-05-09T05:19:52.973Z,97
2023-05-09T05:20:25.204Z,97
2023-05-09T05:20:57.019Z,97
2023-05-09T05:21:29.162Z,97
2023-05-09T05:22:00.770Z,97
2023-05-09T05:22:32.986Z,97
2023-05-09T05:23:05.204Z,97
2023-05-09T05:23:36.859Z,97
2023-05-09T05:24:09.023Z,97
2023-05-09T05:24:40.854Z,97
2023-05-09T05:25:13.314Z,97
2023-05-09T05:25:44.890Z,97
2023-05-09T05:26:18.609Z,97
2023-05-09T05:26:48.741Z,97
2023-05-09T05:27:20.968Z,97
2023-05-09T05:27:52.787Z,97
2023-05-09T05:28:24.488Z,97
2023-05-09T05:28:56.589Z,97
2023-05-09T05:29:15.030Z,97
2023-05-09T05:29:56.518Z,97
2023-05-09T05:30:29.450Z,97
2023-05-09T05:31:00.695Z,97
2023-05-09T05:31:32.486Z,97
2023-05-09T05:32:04.767Z,97
2023-05-09T05:32:36.519Z,97
2023-05-09T05:33:08.579Z,97
2023-05-09T05:33:40.455Z,97
2023-05-09T05:33:56.568Z,97
2023-05-09T05:34:28.525Z,97
2023-05-09T05:34:44.411Z,97
2023-05-09T05:35:16.742Z,97
2023-05-09T05:35:48.480Z,97
2023-05-09T05:36:20.376Z,97
2023-05-09T05:36:52.771Z,97
2023-05-09T05:37:24.209Z,97
2023-05-09T05:37:56.194Z,97
2023-05-09T05:38:12.293Z,96
2023-05-09T05:38:44.305Z,96
2023-05-09T05:39:28.491Z,96
2023-05-09T05:40:00.752Z,96
2023-05-09T05:40:32.118Z,96
2023-05-09T05:41:04.206Z,96
2023-05-09T05:41:36.132Z,96
2023-05-09T05:42:08.051Z,96
2023-05-09T05:42:39.964Z,96
2023-05-09T05:42:56.091Z,96
2023-05-09T05:43:40.134Z,95
2023-05-09T05:44:11.984Z,95
2023-05-09T05:44:43.929Z,95
2023-05-09T05:45:17.578Z,95
2023-05-09T05:45:47.954Z,95
2023-05-09T05:46:20.017Z,95
2023-05-09T05:46:51.692Z,95
2023-05-09T05:47:23.886Z,95
2023-05-09T05:47:56.174Z,95
2023-05-09T05:48:28.010Z,95
2023-05-09T05:48:59.841Z,95
2023-05-09T05:49:31.665Z,95
2023-05-09T05:50:04.684Z,95
2023-05-09T05:50:35.830Z,95
2023-05-09T05:51:07.801Z,95
2023-05-09T05:51:40.018Z,95
2023-05-09T05:52:11.533Z,95
2023-05-09T05:52:43.698Z,94
2023-05-09T05:53:15.556Z,94
2023-05-09T05:53:47.626Z,94
2023-05-09T05:54:19.783Z,94
2023-05-09T05:54:51.662Z,94
2023-05-09T05:55:23.734Z,94
2023-05-09T05:55:55.509Z,94
2023-05-09T05:56:28.347Z,94
2023-05-09T05:56:59.676Z,94
2023-05-09T05:57:31.373Z,94
2023-05-09T05:58:04.184Z,94
2023-05-09T05:58:35.406Z,94
2023-05-09T05:59:07.582Z,94
2023-05-09T05:59:39.659Z,94
2023-05-09T06:00:13.061Z,93
2023-05-09T06:00:43.333Z,94
2023-05-09T06:01:15.398Z,94
2023-05-09T06:01:48.739Z,94
2023-05-09T06:02:19.495Z,93
2023-05-09T06:02:51.198Z,94
2023-05-09T06:03:23.386Z,93
2023-05-09T06:03:55.189Z,93
2023-05-09T06:04:11.340Z,93
2023-05-09T06:04:56.173Z,93
2023-05-09T06:05:29.040Z,93
2023-05-09T06:05:59.326Z,93
2023-05-09T06:06:30.832Z,93
2023-05-09T06:07:03.824Z,93
2023-05-09T06:07:35.171Z,93
2023-05-09T06:08:07.128Z,93
2023-05-09T06:08:38.998Z,93
2023-05-09T06:09:11.150Z,93
2023-05-09T06:09:42.866Z,93
2023-05-09T06:10:15.170Z,93
2023-05-09T06:10:46.821Z,93
2023-05-09T06:11:19.148Z,92
2023-05-09T06:11:50.836Z,92
2023-05-09T06:12:22.979Z,92
2023-05-09T06:12:54.774Z,92
2023-05-09T06:13:26.848Z,91
2023-05-09T06:13:58.940Z,91
2023-05-09T06:14:30.913Z,90
2023-05-09T06:15:05.737Z,90
2023-05-09T06:15:34.699Z,90
2023-05-09T06:16:18.802Z,90
2023-05-09T06:16:39.093Z,90
2023-05-09T06:17:10.656Z,89
2023-05-09T06:17:42.887Z,90
2023-05-09T06:18:14.941Z,90
2023-05-09T06:18:46.620Z,90
2023-05-09T06:19:18.995Z,90
2023-05-09T06:19:50.858Z,89
2023-05-09T06:20:23.033Z,89
2023-05-09T06:20:54.665Z,90
2023-05-09T06:21:10.796Z,90
2023-05-09T06:21:54.739Z,88
2023-05-09T06:22:26.792Z,88
2023-05-09T06:23:03.904Z,88
2023-05-09T06:23:30.863Z,88
2023-05-09T06:24:11.951Z,89
2023-05-09T06:24:36.199Z,89
2023-05-09T06:25:09.489Z,89
2023-05-09T06:25:38.969Z,88
2023-05-09T06:26:10.726Z,89
2023-05-09T06:26:42.570Z,88
2023-05-09T06:27:14.313Z,87
2023-05-09T06:27:48.285Z,88
2023-05-09T06:28:18.623Z,88
2023-05-09T06:28:50.675Z,87
2023-05-09T06:29:22.204Z,87
2023-05-09T06:29:54.270Z,88
2023-05-09T06:30:29.207Z,87
2023-05-09T06:30:58.371Z,86
2023-05-09T06:31:30.303Z,87
2023-05-09T06:32:02.798Z,87
2023-05-09T06:32:34.232Z,87
2023-05-09T06:33:06.274Z,86
2023-05-09T06:33:38.352Z,86
2023-05-09T06:34:10.526Z,86
2023-05-09T06:34:41.944Z,86
2023-05-09T06:35:14.170Z,86
2023-05-09T06:35:45.936Z,86
2023-05-09T06:36:18.281Z,85
2023-05-09T06:36:50.277Z,87
2023-05-09T06:37:21.977Z,87
2023-05-09T06:37:54.117Z,86
2023-05-09T06:38:26.106Z,87
2023-05-09T06:38:58.159Z,87
2023-05-09T06:39:29.917Z,87
2023-05-09T06:40:02.690Z,88
2023-05-09T06:40:35.678Z,88
2023-05-09T06:41:06.068Z,88
2023-05-09T06:41:37.907Z,88
2023-05-09T06:42:09.744Z,88
2023-05-09T06:42:25.624Z,88
2023-05-09T06:43:09.820Z,87
2023-05-09T06:43:41.521Z,87
2023-05-09T06:44:13.304Z,86
2023-05-09T06:44:45.399Z,86
2023-05-09T06:45:20.994Z,87
2023-05-09T06:45:49.650Z,86
2023-05-09T06:46:21.381Z,87
2023-05-09T06:46:53.639Z,87
2023-05-09T06:47:25.488Z,87
2023-05-09T06:47:57.618Z,87
2023-05-09T06:48:31.183Z,88
2023-05-09T06:49:01.578Z,88
2023-05-09T06:49:33.481Z,88
2023-05-09T06:50:05.717Z,88
2023-05-09T06:50:37.321Z,88
2023-05-09T06:51:09.848Z,88
2023-05-09T06:51:41.437Z,88
2023-05-09T06:52:13.513Z,88
2023-05-09T06:52:45.249Z,88
2023-05-09T06:53:17.272Z,87
2023-05-09T06:53:49.414Z,87
2023-05-09T06:54:21.418Z,87
2023-05-09T06:54:53.250Z,87
2023-05-09T06:55:12.452Z,87
2023-05-09T06:55:53.335Z,87
2023-05-09T06:56:25.322Z,87
2023-05-09T06:56:57.320Z,87
2023-05-09T06:57:29.648Z,87
2023-05-09T06:58:01.161Z,87
2023-05-09T06:58:33.161Z,88
2023-05-09T06:59:05.332Z,87
2023-05-09T06:59:37.113Z,87
2023-05-09T06:59:53.207Z,87
2023-05-09T07:00:25.516Z,86
2023-05-09T07:00:41.010Z,85
2023-05-09T07:01:13.017Z,84
2023-05-09T07:01:45.016Z,83
2023-05-09T07:02:16.911Z,83
2023-05-09T07:02:50.709Z,82
2023-05-09T07:03:20.947Z,82
2023-05-09T07:03:52.991Z,82
2023-05-09T07:04:25.030Z,82
2023-05-09T07:04:56.884Z,81
2023-05-09T07:05:29.213Z,81
2023-05-09T07:06:01.147Z,82
2023-05-09T07:06:32.775Z,82
2023-05-09T07:07:04.657Z,82
2023-05-09T07:07:36.641Z,80
2023-05-09T07:07:52.835Z,81
2023-05-09T07:08:38.266Z,81
2023-05-09T07:09:09.096Z,81
2023-05-09T07:09:40.790Z,80
2023-05-09T07:10:13.237Z,79
2023-05-09T07:10:44.747Z,79
2023-05-09T07:11:16.557Z,78
2023-05-09T07:11:48.603Z,79
2023-05-09T07:12:20.815Z,79
2023-05-09T07:12:52.538Z,80
2023-05-09T07:13:24.556Z,80
2023-05-09T07:13:40.785Z,81
2023-05-09T07:14:12.557Z,81
2023-05-09T07:14:56.488Z,81
2023-05-09T07:15:41.545Z,81
2023-05-09T07:16:00.515Z,80
2023-05-09T07:16:32.923Z,79
2023-05-09T07:17:21.103Z,78
2023-05-09T07:17:36.369Z,78
2023-05-09T07:18:08.588Z,79
2023-05-09T07:18:24.423Z,79
2023-05-09T07:19:08.288Z,80
2023-05-09T07:19:24.492Z,80
2023-05-09T07:20:12.440Z,81
2023-05-09T07:20:40.613Z,80
2023-05-09T07:21:12.092Z,80
2023-05-09T07:21:44.010Z,81
2023-05-09T07:22:16.265Z,81
2023-05-09T07:22:48.330Z,80
2023-05-09T07:23:20.063Z,79
2023-05-09T07:23:52.161Z,79
2023-05-09T07:24:24.109Z,78
2023-05-09T07:24:56.058Z,78
2023-05-09T07:25:29.803Z,78
2023-05-09T07:26:00.093Z,77
2023-05-09T07:26:31.893Z,75
2023-05-09T07:27:04.264Z,72
2023-05-09T07:27:35.872Z,70